sensor_id;sensor_type;location;lat;lon;timestamp;temperature;humidity
25128;DHT22;13107;51.304;6.866;2022-12-18T00:05:30;-3.00;99.90
25128;DHT22;13107;51.304;6.866;2022-12-18T00:09:31;-3.00;99.90
25128;DHT22;13107;51.304;6.866;2022-12-18T00:13:41;-3.00;99.90
25128;DHT22;13107;51.304;6.866;2022-12-18T00:17:43;-3.00;99.90
25128;DHT22;13107;51.304;6.866;2022-12-18T00:21:45;-2.90;99.90
25128;DHT22;13107;51.304;6.866;2022-12-18T00:25:46;-3.00;99.90
25128;DHT22;13107;51.304;6.866;2022-12-18T00:29:48;-2.90;99.90
25128;DHT22;13107;51.304;6.866;2022-12-18T00:33:50;-3.00;99.90
25128;DHT22;13107;51.304;6.866;2022-12-18T00:37:56;-3.00;99.90
25128;DHT22;13107;51.304;6.866;2022-12-18T00:41:57;-3.10;99.90
25128;DHT22;13107;51.304;6.866;2022-12-18T00:46:17;-3.20;99.90
25128;DHT22;13107;51.304;6.866;2022-12-18T00:50:21;-3.10;99.90
25128;DHT22;13107;51.304;6.866;2022-12-18T00:54:23;-3.10;99.90
25128;DHT22;13107;51.304;6.866;2022-12-18T00:58:25;-3.10;99.90
25128;DHT22;13107;51.304;6.866;2022-12-18T01:02:26;-3.20;99.90
25128;DHT22;13107;51.304;6.866;2022-12-18T01:06:29;-3.10;99.90
25128;DHT22;13107;51.304;6.866;2022-12-18T01:10:31;-3.10;99.90
25128;DHT22;13107;51.304;6.866;2022-12-18T01:14:32;-3.10;99.90
25128;DHT22;13107;51.304;6.866;2022-12-18T01:18:35;-3.10;99.90
25128;DHT22;13107;51.304;6.866;2022-12-18T01:22:36;-3.10;99.90
25128;DHT22;13107;51.304;6.866;2022-12-18T01:26:38;-3.20;99.90
25128;DHT22;13107;51.304;6.866;2022-12-18T01:30:40;-3.10;99.90
25128;DHT22;13107;51.304;6.866;2022-12-18T01:34:42;-3.10;99.90
25128;DHT22;13107;51.304;6.866;2022-12-18T01:38:44;-3.10;99.90
25128;DHT22;13107;51.304;6.866;2022-12-18T01:42:52;-3.10;99.90
25128;DHT22;13107;51.304;6.866;2022-12-18T01:46:54;-3.10;99.90
25128;DHT22;13107;51.304;6.866;2022-12-18T01:50:56;-3.10;99.90
25128;DHT22;13107;51.304;6.866;2022-12-18T01:54:59;-3.10;99.90
25128;DHT22;13107;51.304;6.866;2022-12-18T01:59:06;-3.00;99.90
25128;DHT22;13107;51.304;6.866;2022-12-18T02:03:09;-2.90;99.90
25128;DHT22;13107;51.304;6.866;2022-12-18T02:15:54;-2.80;99.90
25128;DHT22;13107;51.304;6.866;2022-12-18T02:20:05;-2.80;99.90
25128;DHT22;13107;51.304;6.866;2022-12-18T02:28:16;-2.80;99.90
25128;DHT22;13107;51.304;6.866;2022-12-18T02:32:24;-2.80;99.90
25128;DHT22;13107;51.304;6.866;2022-12-18T02:36:28;-2.80;99.90
25128;DHT22;13107;51.304;6.866;2022-12-18T02:40:31;-2.70;99.90
25128;DHT22;13107;51.304;6.866;2022-12-18T02:44:34;-2.60;99.90
25128;DHT22;13107;51.304;6.866;2022-12-18T02:48:37;-2.60;99.90
25128;DHT22;13107;51.304;6.866;2022-12-18T02:52:52;-2.50;99.90
25128;DHT22;13107;51.304;6.866;2022-12-18T02:57:01;-2.50;99.90
25128;DHT22;13107;51.304;6.866;2022-12-18T03:06:03;-2.60;99.90
25128;DHT22;13107;51.304;6.866;2022-12-18T03:10:09;-2.70;99.90
25128;DHT22;13107;51.304;6.866;2022-12-18T03:14:15;-2.70;99.90
25128;DHT22;13107;51.304;6.866;2022-12-18T03:18:25;-2.60;99.90
25128;DHT22;13107;51.304;6.866;2022-12-18T03:22:30;-2.70;99.90
25128;DHT22;13107;51.304;6.866;2022-12-18T03:26:33;-2.70;99.90
25128;DHT22;13107;51.304;6.866;2022-12-18T03:30:38;-2.70;99.90
25128;DHT22;13107;51.304;6.866;2022-12-18T03:34:42;-2.70;99.90
25128;DHT22;13107;51.304;6.866;2022-12-18T03:38:45;-2.60;99.90
25128;DHT22;13107;51.304;6.866;2022-12-18T03:42:51;-2.60;99.90
25128;DHT22;13107;51.304;6.866;2022-12-18T03:47:09;-2.80;99.90
25128;DHT22;13107;51.304;6.866;2022-12-18T03:51:24;-2.80;99.90
25128;DHT22;13107;51.304;6.866;2022-12-18T03:55:27;-2.70;99.90
25128;DHT22;13107;51.304;6.866;2022-12-18T03:59:31;-2.60;99.90
25128;DHT22;13107;51.304;6.866;2022-12-18T04:03:36;-2.60;99.90
25128;DHT22;13107;51.304;6.866;2022-12-18T04:07:39;-2.70;99.90
25128;DHT22;13107;51.304;6.866;2022-12-18T04:11:42;-2.70;99.90
25128;DHT22;13107;51.304;6.866;2022-12-18T04:15:46;-2.70;99.90
25128;DHT22;13107;51.304;6.866;2022-12-18T04:19:48;-2.60;99.90
25128;DHT22;13107;51.304;6.866;2022-12-18T04:23:50;-2.70;99.90
25128;DHT22;13107;51.304;6.866;2022-12-18T04:27:51;-2.70;99.90
25128;DHT22;13107;51.304;6.866;2022-12-18T04:31:53;-2.60;99.90
25128;DHT22;13107;51.304;6.866;2022-12-18T04:35:55;-2.60;99.90
25128;DHT22;13107;51.304;6.866;2022-12-18T04:39:57;-2.60;99.90
25128;DHT22;13107;51.304;6.866;2022-12-18T04:43:59;-2.60;99.90
25128;DHT22;13107;51.304;6.866;2022-12-18T04:48:01;-2.50;99.90
25128;DHT22;13107;51.304;6.866;2022-12-18T04:52:03;-2.50;99.90
25128;DHT22;13107;51.304;6.866;2022-12-18T04:56:13;-2.50;99.90
25128;DHT22;13107;51.304;6.866;2022-12-18T05:00:15;-2.50;99.90
25128;DHT22;13107;51.304;6.866;2022-12-18T05:04:17;-2.60;99.90
25128;DHT22;13107;51.304;6.866;2022-12-18T05:08:20;-2.70;99.90
25128;DHT22;13107;51.304;6.866;2022-12-18T05:12:25;-2.80;99.90
25128;DHT22;13107;51.304;6.866;2022-12-18T05:16:26;-2.70;99.90
25128;DHT22;13107;51.304;6.866;2022-12-18T05:20:28;-2.60;99.90
25128;DHT22;13107;51.304;6.866;2022-12-18T05:24:30;-2.60;99.90
25128;DHT22;13107;51.304;6.866;2022-12-18T05:28:33;-2.60;99.90
25128;DHT22;13107;51.304;6.866;2022-12-18T05:32:35;-2.60;99.90
25128;DHT22;13107;51.304;6.866;2022-12-18T05:36:37;-2.60;99.90
25128;DHT22;13107;51.304;6.866;2022-12-18T05:40:42;-2.60;99.90
25128;DHT22;13107;51.304;6.866;2022-12-18T05:44:44;-2.60;99.90
25128;DHT22;13107;51.304;6.866;2022-12-18T05:48:45;-2.60;99.90
25128;DHT22;13107;51.304;6.866;2022-12-18T05:52:47;-2.70;99.90
25128;DHT22;13107;51.304;6.866;2022-12-18T05:56:49;-2.70;99.90
25128;DHT22;13107;51.304;6.866;2022-12-18T06:00:51;-2.60;99.90
25128;DHT22;13107;51.304;6.866;2022-12-18T06:04:52;-2.50;99.90
25128;DHT22;13107;51.304;6.866;2022-12-18T06:08:54;-2.50;99.90
25128;DHT22;13107;51.304;6.866;2022-12-18T06:12:56;-2.40;99.90
25128;DHT22;13107;51.304;6.866;2022-12-18T06:16:58;-2.40;99.90
25128;DHT22;13107;51.304;6.866;2022-12-18T06:21:00;-2.40;99.90
25128;DHT22;13107;51.304;6.866;2022-12-18T06:25:02;-2.40;99.90
25128;DHT22;13107;51.304;6.866;2022-12-18T06:29:04;-2.40;99.90
25128;DHT22;13107;51.304;6.866;2022-12-18T06:33:06;-2.40;99.90
25128;DHT22;13107;51.304;6.866;2022-12-18T06:37:08;-2.40;99.90
25128;DHT22;13107;51.304;6.866;2022-12-18T06:41:12;-2.50;99.90
25128;DHT22;13107;51.304;6.866;2022-12-18T06:45:14;-2.50;99.90
25128;DHT22;13107;51.304;6.866;2022-12-18T06:49:16;-2.60;99.90
25128;DHT22;13107;51.304;6.866;2022-12-18T06:53:17;-2.60;99.90
25128;DHT22;13107;51.304;6.866;2022-12-18T06:57:19;-2.60;99.90
25128;DHT22;13107;51.304;6.866;2022-12-18T07:01:21;-2.60;99.90
25128;DHT22;13107;51.304;6.866;2022-12-18T07:05:23;-2.50;99.90
25128;DHT22;13107;51.304;6.866;2022-12-18T07:09:25;-2.50;99.90
25128;DHT22;13107;51.304;6.866;2022-12-18T07:13:27;-2.60;99.90
25128;DHT22;13107;51.304;6.866;2022-12-18T07:17:29;-2.70;99.90
25128;DHT22;13107;51.304;6.866;2022-12-18T07:21:31;-2.60;99.90
25128;DHT22;13107;51.304;6.866;2022-12-18T07:25:36;-2.60;99.90
25128;DHT22;13107;51.304;6.866;2022-12-18T07:29:38;-2.60;99.90
25128;DHT22;13107;51.304;6.866;2022-12-18T07:33:40;-2.60;99.90
25128;DHT22;13107;51.304;6.866;2022-12-18T07:37:42;-2.70;99.90
25128;DHT22;13107;51.304;6.866;2022-12-18T07:41:44;-2.60;99.90
25128;DHT22;13107;51.304;6.866;2022-12-18T07:46:06;-2.50;99.90
25128;DHT22;13107;51.304;6.866;2022-12-18T07:50:09;-2.50;99.90
25128;DHT22;13107;51.304;6.866;2022-12-18T07:54:10;-2.50;99.90
25128;DHT22;13107;51.304;6.866;2022-12-18T07:58:12;-2.40;99.90
25128;DHT22;13107;51.304;6.866;2022-12-18T08:02:14;-2.50;99.90
25128;DHT22;13107;51.304;6.866;2022-12-18T08:06:16;-2.50;99.90
25128;DHT22;13107;51.304;6.866;2022-12-18T08:10:18;-2.50;99.90
25128;DHT22;13107;51.304;6.866;2022-12-18T08:14:20;-2.50;99.90
25128;DHT22;13107;51.304;6.866;2022-12-18T08:18:21;-2.60;99.90
25128;DHT22;13107;51.304;6.866;2022-12-18T08:22:23;-2.60;99.90
25128;DHT22;13107;51.304;6.866;2022-12-18T08:26:26;-2.60;99.90
25128;DHT22;13107;51.304;6.866;2022-12-18T08:30:28;-2.50;99.90
25128;DHT22;13107;51.304;6.866;2022-12-18T08:34:30;-2.40;99.90
25128;DHT22;13107;51.304;6.866;2022-12-18T08:38:35;-2.30;99.90
25128;DHT22;13107;51.304;6.866;2022-12-18T08:42:37;-2.20;99.90
25128;DHT22;13107;51.304;6.866;2022-12-18T08:46:57;-2.00;99.90
25128;DHT22;13107;51.304;6.866;2022-12-18T08:50:59;-1.80;99.90
25128;DHT22;13107;51.304;6.866;2022-12-18T08:55:01;-1.70;99.90
25128;DHT22;13107;51.304;6.866;2022-12-18T08:59:03;-1.40;99.90
25128;DHT22;13107;51.304;6.866;2022-12-18T09:03:11;-1.30;99.90
25128;DHT22;13107;51.304;6.866;2022-12-18T09:07:13;-1.20;99.90
25128;DHT22;13107;51.304;6.866;2022-12-18T09:11:20;-1.10;99.90
25128;DHT22;13107;51.304;6.866;2022-12-18T09:15:22;-1.00;99.90
25128;DHT22;13107;51.304;6.866;2022-12-18T09:19:24;-1.00;99.90
25128;DHT22;13107;51.304;6.866;2022-12-18T09:23:25;-0.80;99.90
25128;DHT22;13107;51.304;6.866;2022-12-18T09:27:27;-0.70;99.90
25128;DHT22;13107;51.304;6.866;2022-12-18T09:31:29;-0.80;99.90
25128;DHT22;13107;51.304;6.866;2022-12-18T09:35:30;-0.60;99.90
25128;DHT22;13107;51.304;6.866;2022-12-18T09:39:35;-0.50;99.90
25128;DHT22;13107;51.304;6.866;2022-12-18T09:43:49;-0.30;99.90
25128;DHT22;13107;51.304;6.866;2022-12-18T09:47:52;-0.20;99.90
25128;DHT22;13107;51.304;6.866;2022-12-18T09:52:04;0.00;99.90
25128;DHT22;13107;51.304;6.866;2022-12-18T09:56:12;0.10;99.90
25128;DHT22;13107;51.304;6.866;2022-12-18T10:00:20;0.20;99.90
25128;DHT22;13107;51.304;6.866;2022-12-18T10:04:24;0.30;99.90
25128;DHT22;13107;51.304;6.866;2022-12-18T10:08:51;0.40;99.90
25128;DHT22;13107;51.304;6.866;2022-12-18T10:13:10;0.50;99.90
25128;DHT22;13107;51.304;6.866;2022-12-18T10:26:05;0.80;99.90
25128;DHT22;13107;51.304;6.866;2022-12-18T10:30:20;0.90;99.90
25128;DHT22;13107;51.304;6.866;2022-12-18T10:34:23;1.00;99.90
25128;DHT22;13107;51.304;6.866;2022-12-18T10:38:30;1.10;99.90
25128;DHT22;13107;51.304;6.866;2022-12-18T10:42:31;1.20;99.90
25128;DHT22;13107;51.304;6.866;2022-12-18T10:46:33;1.30;99.90
25128;DHT22;13107;51.304;6.866;2022-12-18T10:50:36;1.30;99.90
25128;DHT22;13107;51.304;6.866;2022-12-18T10:54:59;1.30;99.90
25128;DHT22;13107;51.304;6.866;2022-12-18T10:59:09;1.50;99.90
25128;DHT22;13107;51.304;6.866;2022-12-18T11:07:49;1.60;99.90
25128;DHT22;13107;51.304;6.866;2022-12-18T11:11:54;1.60;99.90
25128;DHT22;13107;51.304;6.866;2022-12-18T11:15:57;1.70;99.90
25128;DHT22;13107;51.304;6.866;2022-12-18T11:20:18;1.70;99.90
25128;DHT22;13107;51.304;6.866;2022-12-18T11:24:30;1.70;99.90
25128;DHT22;13107;51.304;6.866;2022-12-18T11:28:45;1.80;99.90
25128;DHT22;13107;51.304;6.866;2022-12-18T11:33:12;1.90;99.90
25128;DHT22;13107;51.304;6.866;2022-12-18T11:37:13;1.90;99.90
25128;DHT22;13107;51.304;6.866;2022-12-18T11:46:13;1.90;99.90
25128;DHT22;13107;51.304;6.866;2022-12-18T11:54:58;1.90;99.90
25128;DHT22;13107;51.304;6.866;2022-12-18T11:59:13;2.00;99.90
25128;DHT22;13107;51.304;6.866;2022-12-18T12:03:40;2.00;99.90
25128;DHT22;13107;51.304;6.866;2022-12-18T12:08:00;1.80;99.90
25128;DHT22;13107;51.304;6.866;2022-12-18T12:16:36;1.90;99.90
25128;DHT22;13107;51.304;6.866;2022-12-18T12:25:52;1.80;99.90
25128;DHT22;13107;51.304;6.866;2022-12-18T12:30:08;1.70;99.90
25128;DHT22;13107;51.304;6.866;2022-12-18T12:34:23;1.70;99.90
25128;DHT22;13107;51.304;6.866;2022-12-18T12:42:47;1.50;99.90
25128;DHT22;13107;51.304;6.866;2022-12-18T12:47:18;1.50;99.90
25128;DHT22;13107;51.304;6.866;2022-12-18T12:55:27;1.40;99.90
25128;DHT22;13107;51.304;6.866;2022-12-18T13:03:58;1.30;99.90
25128;DHT22;13107;51.304;6.866;2022-12-18T13:08:25;1.30;99.90
25128;DHT22;13107;51.304;6.866;2022-12-18T13:12:27;1.30;99.90
25128;DHT22;13107;51.304;6.866;2022-12-18T13:16:48;1.10;99.90
25128;DHT22;13107;51.304;6.866;2022-12-18T13:21:12;1.10;99.90
25128;DHT22;13107;51.304;6.866;2022-12-18T13:25:32;1.00;99.90
25128;DHT22;13107;51.304;6.866;2022-12-18T13:29:45;1.20;99.90
25128;DHT22;13107;51.304;6.866;2022-12-18T13:33:48;1.10;99.90
25128;DHT22;13107;51.304;6.866;2022-12-18T13:38:37;1.10;99.90
25128;DHT22;13107;51.304;6.866;2022-12-18T13:42:40;1.20;99.90
25128;DHT22;13107;51.304;6.866;2022-12-18T13:47:03;1.10;99.90
25128;DHT22;13107;51.304;6.866;2022-12-18T13:51:10;1.20;99.90
25128;DHT22;13107;51.304;6.866;2022-12-18T13:55:18;1.10;99.90
25128;DHT22;13107;51.304;6.866;2022-12-18T13:59:23;1.10;99.90
25128;DHT22;13107;51.304;6.866;2022-12-18T14:03:28;1.00;99.90
25128;DHT22;13107;51.304;6.866;2022-12-18T14:07:31;1.00;99.90
25128;DHT22;13107;51.304;6.866;2022-12-18T14:11:50;1.00;99.90
25128;DHT22;13107;51.304;6.866;2022-12-18T14:15:52;1.00;99.90
25128;DHT22;13107;51.304;6.866;2022-12-18T14:19:55;1.00;99.90
25128;DHT22;13107;51.304;6.866;2022-12-18T14:24:17;1.00;99.90
25128;DHT22;13107;51.304;6.866;2022-12-18T14:28:20;1.00;99.90
25128;DHT22;13107;51.304;6.866;2022-12-18T14:32:23;0.90;99.90
25128;DHT22;13107;51.304;6.866;2022-12-18T14:36:27;0.80;99.90
25128;DHT22;13107;51.304;6.866;2022-12-18T14:40:29;0.90;99.90
25128;DHT22;13107;51.304;6.866;2022-12-18T14:44:30;0.80;99.90
25128;DHT22;13107;51.304;6.866;2022-12-18T14:48:51;0.70;99.90
25128;DHT22;13107;51.304;6.866;2022-12-18T14:52:53;0.70;99.90
25128;DHT22;13107;51.304;6.866;2022-12-18T14:57:05;0.70;99.90
25128;DHT22;13107;51.304;6.866;2022-12-18T15:01:07;0.60;99.90
25128;DHT22;13107;51.304;6.866;2022-12-18T15:09:24;0.60;99.90
25128;DHT22;13107;51.304;6.866;2022-12-18T15:13:26;0.50;99.90
25128;DHT22;13107;51.304;6.866;2022-12-18T15:17:28;0.50;99.90
25128;DHT22;13107;51.304;6.866;2022-12-18T15:21:30;0.50;99.90
25128;DHT22;13107;51.304;6.866;2022-12-18T15:25:36;0.60;99.90
25128;DHT22;13107;51.304;6.866;2022-12-18T15:29:41;0.60;99.90
25128;DHT22;13107;51.304;6.866;2022-12-18T15:33:43;0.50;99.90
25128;DHT22;13107;51.304;6.866;2022-12-18T15:37:48;0.50;99.90
25128;DHT22;13107;51.304;6.866;2022-12-18T15:41:50;0.50;99.90
25128;DHT22;13107;51.304;6.866;2022-12-18T15:46:15;0.60;99.90
25128;DHT22;13107;51.304;6.866;2022-12-18T15:50:17;0.50;99.90
25128;DHT22;13107;51.304;6.866;2022-12-18T15:54:20;0.50;99.90
25128;DHT22;13107;51.304;6.866;2022-12-18T15:58:42;0.40;99.90
25128;DHT22;13107;51.304;6.866;2022-12-18T16:02:44;0.40;99.90
25128;DHT22;13107;51.304;6.866;2022-12-18T16:06:46;0.30;99.90
25128;DHT22;13107;51.304;6.866;2022-12-18T16:11:27;0.40;99.90
25128;DHT22;13107;51.304;6.866;2022-12-18T16:15:45;0.30;99.90
25128;DHT22;13107;51.304;6.866;2022-12-18T16:19:47;0.30;99.90
25128;DHT22;13107;51.304;6.866;2022-12-18T16:23:48;0.30;99.90
25128;DHT22;13107;51.304;6.866;2022-12-18T16:27:51;0.20;99.90
25128;DHT22;13107;51.304;6.866;2022-12-18T16:31:54;0.20;99.90
25128;DHT22;13107;51.304;6.866;2022-12-18T16:35:56;0.20;99.90
25128;DHT22;13107;51.304;6.866;2022-12-18T16:39:57;0.20;99.90
25128;DHT22;13107;51.304;6.866;2022-12-18T16:43:59;0.20;99.90
25128;DHT22;13107;51.304;6.866;2022-12-18T16:48:01;0.00;99.90
25128;DHT22;13107;51.304;6.866;2022-12-18T16:52:04;0.10;99.90
25128;DHT22;13107;51.304;6.866;2022-12-18T16:56:06;0.10;99.90
25128;DHT22;13107;51.304;6.866;2022-12-18T17:00:08;0.10;99.90
25128;DHT22;13107;51.304;6.866;2022-12-18T17:04:10;0.00;99.90
25128;DHT22;13107;51.304;6.866;2022-12-18T17:08:11;0.00;99.90
25128;DHT22;13107;51.304;6.866;2022-12-18T17:12:13;0.00;99.90
25128;DHT22;13107;51.304;6.866;2022-12-18T17:16:15;0.00;99.90
25128;DHT22;13107;51.304;6.866;2022-12-18T17:20:18;0.00;99.90
25128;DHT22;13107;51.304;6.866;2022-12-18T17:24:20;0.00;99.90
25128;DHT22;13107;51.304;6.866;2022-12-18T17:28:23;-0.10;99.90
25128;DHT22;13107;51.304;6.866;2022-12-18T17:32:26;-0.10;99.90
25128;DHT22;13107;51.304;6.866;2022-12-18T17:36:28;-0.10;99.90
25128;DHT22;13107;51.304;6.866;2022-12-18T17:40:32;-0.20;99.90
25128;DHT22;13107;51.304;6.866;2022-12-18T17:44:34;-0.20;99.90
25128;DHT22;13107;51.304;6.866;2022-12-18T17:48:36;-0.20;99.90
25128;DHT22;13107;51.304;6.866;2022-12-18T17:52:38;-0.20;99.90
25128;DHT22;13107;51.304;6.866;2022-12-18T17:56:40;-0.30;99.90
25128;DHT22;13107;51.304;6.866;2022-12-18T18:00:42;-0.30;99.90
25128;DHT22;13107;51.304;6.866;2022-12-18T18:04:44;-0.20;99.90
25128;DHT22;13107;51.304;6.866;2022-12-18T18:08:45;-0.20;99.90
25128;DHT22;13107;51.304;6.866;2022-12-18T18:12:47;-0.20;99.90
25128;DHT22;13107;51.304;6.866;2022-12-18T18:17:07;-0.20;99.90
25128;DHT22;13107;51.304;6.866;2022-12-18T18:21:09;-0.30;99.90
25128;DHT22;13107;51.304;6.866;2022-12-18T18:25:11;-0.20;99.90
25128;DHT22;13107;51.304;6.866;2022-12-18T18:29:16;-0.30;99.90
25128;DHT22;13107;51.304;6.866;2022-12-18T18:33:18;-0.40;99.90
25128;DHT22;13107;51.304;6.866;2022-12-18T18:37:20;-0.30;99.90
25128;DHT22;13107;51.304;6.866;2022-12-18T18:41:21;-0.30;99.90
25128;DHT22;13107;51.304;6.866;2022-12-18T18:45:25;-0.30;99.90
25128;DHT22;13107;51.304;6.866;2022-12-18T18:49:26;-0.30;99.90
25128;DHT22;13107;51.304;6.866;2022-12-18T18:53:29;-0.40;99.90
25128;DHT22;13107;51.304;6.866;2022-12-18T18:57:32;-0.30;99.90
25128;DHT22;13107;51.304;6.866;2022-12-18T19:01:34;-0.30;99.90
25128;DHT22;13107;51.304;6.866;2022-12-18T19:05:36;-0.30;99.90
25128;DHT22;13107;51.304;6.866;2022-12-18T19:09:37;-0.30;99.90
25128;DHT22;13107;51.304;6.866;2022-12-18T19:13:39;-0.30;99.90
25128;DHT22;13107;51.304;6.866;2022-12-18T19:17:41;-0.30;99.90
25128;DHT22;13107;51.304;6.866;2022-12-18T19:21:47;-0.30;99.90
25128;DHT22;13107;51.304;6.866;2022-12-18T19:25:50;-0.30;99.90
25128;DHT22;13107;51.304;6.866;2022-12-18T19:30:12;-0.30;99.90
25128;DHT22;13107;51.304;6.866;2022-12-18T19:34:14;-0.30;99.90
25128;DHT22;13107;51.304;6.866;2022-12-18T19:38:16;-0.40;99.90
25128;DHT22;13107;51.304;6.866;2022-12-18T19:42:17;-0.30;99.90
25128;DHT22;13107;51.304;6.866;2022-12-18T19:46:27;-0.20;99.90
25128;DHT22;13107;51.304;6.866;2022-12-18T19:50:28;-0.20;99.90
25128;DHT22;13107;51.304;6.866;2022-12-18T19:54:33;-0.20;99.90
25128;DHT22;13107;51.304;6.866;2022-12-18T19:58:35;-0.20;99.90
25128;DHT22;13107;51.304;6.866;2022-12-18T20:02:37;-0.10;99.90
25128;DHT22;13107;51.304;6.866;2022-12-18T20:06:50;-0.10;99.90
25128;DHT22;13107;51.304;6.866;2022-12-18T20:10:53;0.00;99.90
25128;DHT22;13107;51.304;6.866;2022-12-18T20:14:55;-0.10;99.90
25128;DHT22;13107;51.304;6.866;2022-12-18T20:18:57;0.10;99.90
25128;DHT22;13107;51.304;6.866;2022-12-18T20:22:59;0.30;99.90
25128;DHT22;13107;51.304;6.866;2022-12-18T20:27:01;0.20;99.90
25128;DHT22;13107;51.304;6.866;2022-12-18T20:31:04;0.20;99.90
25128;DHT22;13107;51.304;6.866;2022-12-18T20:35:10;0.20;99.90
25128;DHT22;13107;51.304;6.866;2022-12-18T20:39:13;0.10;99.90
25128;DHT22;13107;51.304;6.866;2022-12-18T20:43:16;0.10;99.90
25128;DHT22;13107;51.304;6.866;2022-12-18T20:47:18;0.10;99.90
25128;DHT22;13107;51.304;6.866;2022-12-18T20:51:20;0.20;99.90
25128;DHT22;13107;51.304;6.866;2022-12-18T20:55:22;0.10;99.90
25128;DHT22;13107;51.304;6.866;2022-12-18T20:59:24;0.20;99.90
25128;DHT22;13107;51.304;6.866;2022-12-18T21:03:26;0.10;99.90
25128;DHT22;13107;51.304;6.866;2022-12-18T21:07:28;0.10;99.90
25128;DHT22;13107;51.304;6.866;2022-12-18T21:11:31;0.10;99.90
25128;DHT22;13107;51.304;6.866;2022-12-18T21:15:52;0.10;99.90
25128;DHT22;13107;51.304;6.866;2022-12-18T21:19:55;0.20;99.90
25128;DHT22;13107;51.304;6.866;2022-12-18T21:23:57;0.20;99.90
25128;DHT22;13107;51.304;6.866;2022-12-18T21:27:59;0.20;99.90
25128;DHT22;13107;51.304;6.866;2022-12-18T21:32:01;0.20;99.90
25128;DHT22;13107;51.304;6.866;2022-12-18T21:36:04;0.20;99.90
25128;DHT22;13107;51.304;6.866;2022-12-18T21:40:07;0.20;99.90
25128;DHT22;13107;51.304;6.866;2022-12-18T21:44:14;0.20;99.90
25128;DHT22;13107;51.304;6.866;2022-12-18T21:48:16;0.20;99.90
25128;DHT22;13107;51.304;6.866;2022-12-18T21:52:19;0.20;99.90
25128;DHT22;13107;51.304;6.866;2022-12-18T21:56:47;0.20;99.90
25128;DHT22;13107;51.304;6.866;2022-12-18T22:00:49;0.20;99.90
25128;DHT22;13107;51.304;6.866;2022-12-18T22:04:51;0.20;99.90
25128;DHT22;13107;51.304;6.866;2022-12-18T22:08:53;0.20;99.90
25128;DHT22;13107;51.304;6.866;2022-12-18T22:12:55;0.20;99.90
25128;DHT22;13107;51.304;6.866;2022-12-18T22:16:57;0.30;99.90
25128;DHT22;13107;51.304;6.866;2022-12-18T22:21:01;0.30;99.90
25128;DHT22;13107;51.304;6.866;2022-12-18T22:25:03;0.30;99.90
25128;DHT22;13107;51.304;6.866;2022-12-18T22:29:05;0.30;99.90
25128;DHT22;13107;51.304;6.866;2022-12-18T22:33:26;0.40;99.90
25128;DHT22;13107;51.304;6.866;2022-12-18T22:37:27;0.30;99.90
25128;DHT22;13107;51.304;6.866;2022-12-18T22:41:29;0.40;99.90
25128;DHT22;13107;51.304;6.866;2022-12-18T22:45:33;0.40;99.90
25128;DHT22;13107;51.304;6.866;2022-12-18T22:49:38;0.40;99.90
25128;DHT22;13107;51.304;6.866;2022-12-18T22:53:41;0.40;99.90
25128;DHT22;13107;51.304;6.866;2022-12-18T22:57:45;0.40;99.90
25128;DHT22;13107;51.304;6.866;2022-12-18T23:01:50;0.40;99.90
25128;DHT22;13107;51.304;6.866;2022-12-18T23:06:06;0.40;99.90
25128;DHT22;13107;51.304;6.866;2022-12-18T23:10:08;0.50;99.90
25128;DHT22;13107;51.304;6.866;2022-12-18T23:14:10;0.50;99.90
25128;DHT22;13107;51.304;6.866;2022-12-18T23:18:12;0.50;99.90
25128;DHT22;13107;51.304;6.866;2022-12-18T23:22:13;0.50;99.90
25128;DHT22;13107;51.304;6.866;2022-12-18T23:26:18;0.50;99.90
25128;DHT22;13107;51.304;6.866;2022-12-18T23:30:20;0.50;99.90
25128;DHT22;13107;51.304;6.866;2022-12-18T23:34:22;0.60;99.90
25128;DHT22;13107;51.304;6.866;2022-12-18T23:38:24;0.50;99.90
25128;DHT22;13107;51.304;6.866;2022-12-18T23:42:25;0.60;99.90
25128;DHT22;13107;51.304;6.866;2022-12-18T23:46:30;0.60;99.90
25128;DHT22;13107;51.304;6.866;2022-12-18T23:50:34;0.50;99.90
25128;DHT22;13107;51.304;6.866;2022-12-18T23:54:36;0.50;99.90
25128;DHT22;13107;51.304;6.866;2022-12-18T23:58:41;0.60;99.90
